sensor_id;sensor_type;location;lat;lon;timestamp;P1;durP1;ratioP1;P2;durP2;ratioP2
74471;SDS011;62920;53.572;10.050;2023-04-08T00:01:23;13.52;;;5.65;;
74471;SDS011;62920;53.572;10.050;2023-04-08T00:03:48;12.52;;;5.65;;
74471;SDS011;62920;53.572;10.050;2023-04-08T00:06:13;14.30;;;5.80;;
74471;SDS011;62920;53.572;10.050;2023-04-08T00:08:40;14.93;;;6.18;;
74471;SDS011;62920;53.572;10.050;2023-04-08T00:11:05;13.95;;;6.18;;
74471;SDS011;62920;53.572;10.050;2023-04-08T00:13:31;13.95;;;6.22;;
74471;SDS011;62920;53.572;10.050;2023-04-08T00:15:56;17.48;;;6.88;;
74471;SDS011;62920;53.572;10.050;2023-04-08T00:18:22;15.25;;;6.32;;
74471;SDS011;62920;53.572;10.050;2023-04-08T00:20:47;17.50;;;7.50;;
74471;SDS011;62920;53.572;10.050;2023-04-08T00:23:12;14.15;;;6.25;;
74471;SDS011;62920;53.572;10.050;2023-04-08T00:25:38;14.23;;;6.47;;
74471;SDS011;62920;53.572;10.050;2023-04-08T00:28:03;15.52;;;6.38;;
74471;SDS011;62920;53.572;10.050;2023-04-08T00:30:28;14.02;;;6.57;;
74471;SDS011;62920;53.572;10.050;2023-04-08T00:32:54;16.58;;;6.50;;
74471;SDS011;62920;53.572;10.050;2023-04-08T00:35:19;16.98;;;7.28;;
74471;SDS011;62920;53.572;10.050;2023-04-08T00:37:45;15.57;;;6.28;;
74471;SDS011;62920;53.572;10.050;2023-04-08T00:40:10;13.80;;;6.82;;
74471;SDS011;62920;53.572;10.050;2023-04-08T00:42:36;14.50;;;6.35;;
74471;SDS011;62920;53.572;10.050;2023-04-08T00:45:02;16.33;;;6.88;;
74471;SDS011;62920;53.572;10.050;2023-04-08T00:47:27;12.00;;;6.03;;
74471;SDS011;62920;53.572;10.050;2023-04-08T00:49:53;13.77;;;5.68;;
74471;SDS011;62920;53.572;10.050;2023-04-08T00:52:18;14.93;;;6.20;;
74471;SDS011;62920;53.572;10.050;2023-04-08T00:54:44;13.07;;;6.25;;
74471;SDS011;62920;53.572;10.050;2023-04-08T00:57:09;14.65;;;6.22;;
74471;SDS011;62920;53.572;10.050;2023-04-08T00:59:35;12.57;;;5.22;;
74471;SDS011;62920;53.572;10.050;2023-04-08T01:05:04;11.52;;;5.55;;
74471;SDS011;62920;53.572;10.050;2023-04-08T01:07:45;11.43;;;5.30;;
74471;SDS011;62920;53.572;10.050;2023-04-08T01:10:14;11.10;;;5.18;;
74471;SDS011;62920;53.572;10.050;2023-04-08T01:12:54;13.25;;;5.60;;
74471;SDS011;62920;53.572;10.050;2023-04-08T01:15:21;12.35;;;5.68;;
74471;SDS011;62920;53.572;10.050;2023-04-08T01:17:47;11.88;;;5.45;;
74471;SDS011;62920;53.572;10.050;2023-04-08T01:20:12;13.45;;;5.90;;
74471;SDS011;62920;53.572;10.050;2023-04-08T01:25:37;10.90;;;5.07;;
74471;SDS011;62920;53.572;10.050;2023-04-08T01:28:04;12.20;;;5.45;;
74471;SDS011;62920;53.572;10.050;2023-04-08T01:30:33;11.10;;;5.57;;
74471;SDS011;62920;53.572;10.050;2023-04-08T01:33:00;11.68;;;5.55;;
74471;SDS011;62920;53.572;10.050;2023-04-08T01:35:26;10.82;;;5.78;;
74471;SDS011;62920;53.572;10.050;2023-04-08T01:37:52;13.32;;;5.35;;
74471;SDS011;62920;53.572;10.050;2023-04-08T01:42:47;12.15;;;5.13;;
74471;SDS011;62920;53.572;10.050;2023-04-08T01:45:14;13.23;;;5.85;;
74471;SDS011;62920;53.572;10.050;2023-04-08T01:47:40;14.57;;;6.03;;
74471;SDS011;62920;53.572;10.050;2023-04-08T01:50:06;13.23;;;6.00;;
74471;SDS011;62920;53.572;10.050;2023-04-08T01:52:33;11.50;;;5.43;;
74471;SDS011;62920;53.572;10.050;2023-04-08T01:54:59;13.57;;;6.07;;
74471;SDS011;62920;53.572;10.050;2023-04-08T01:57:26;13.02;;;5.15;;
74471;SDS011;62920;53.572;10.050;2023-04-08T01:59:53;14.55;;;6.20;;
74471;SDS011;62920;53.572;10.050;2023-04-08T02:02:22;11.90;;;5.90;;
74471;SDS011;62920;53.572;10.050;2023-04-08T02:04:48;10.85;;;5.55;;
74471;SDS011;62920;53.572;10.050;2023-04-08T02:07:14;15.10;;;4.93;;
74471;SDS011;62920;53.572;10.050;2023-04-08T02:09:39;12.20;;;5.25;;
74471;SDS011;62920;53.572;10.050;2023-04-08T02:12:05;15.43;;;5.60;;
74471;SDS011;62920;53.572;10.050;2023-04-08T02:14:31;12.63;;;5.00;;
74471;SDS011;62920;53.572;10.050;2023-04-08T02:17:05;10.90;;;4.55;;
74471;SDS011;62920;53.572;10.050;2023-04-08T02:19:45;11.05;;;5.25;;
74471;SDS011;62920;53.572;10.050;2023-04-08T02:22:16;11.27;;;5.45;;
74471;SDS011;62920;53.572;10.050;2023-04-08T02:24:45;10.70;;;5.05;;
74471;SDS011;62920;53.572;10.050;2023-04-08T02:27:11;13.35;;;5.35;;
74471;SDS011;62920;53.572;10.050;2023-04-08T02:29:37;10.30;;;5.05;;
74471;SDS011;62920;53.572;10.050;2023-04-08T02:32:04;10.88;;;5.15;;
74471;SDS011;62920;53.572;10.050;2023-04-08T02:34:30;11.60;;;4.95;;
74471;SDS011;62920;53.572;10.050;2023-04-08T02:36:56;11.30;;;5.35;;
74471;SDS011;62920;53.572;10.050;2023-04-08T02:39:29;11.65;;;5.43;;
74471;SDS011;62920;53.572;10.050;2023-04-08T02:41:57;12.25;;;5.45;;
74471;SDS011;62920;53.572;10.050;2023-04-08T02:44:23;8.88;;;4.63;;
74471;SDS011;62920;53.572;10.050;2023-04-08T02:46:48;11.38;;;4.97;;
74471;SDS011;62920;53.572;10.050;2023-04-08T02:49:14;10.40;;;5.30;;
74471;SDS011;62920;53.572;10.050;2023-04-08T02:51:39;10.93;;;4.90;;
74471;SDS011;62920;53.572;10.050;2023-04-08T02:54:05;10.77;;;5.68;;
74471;SDS011;62920;53.572;10.050;2023-04-08T02:56:30;9.77;;;5.03;;
74471;SDS011;62920;53.572;10.050;2023-04-08T02:58:55;11.05;;;5.00;;
74471;SDS011;62920;53.572;10.050;2023-04-08T03:01:21;10.75;;;4.82;;
74471;SDS011;62920;53.572;10.050;2023-04-08T03:03:46;10.65;;;4.72;;
74471;SDS011;62920;53.572;10.050;2023-04-08T03:06:12;11.88;;;5.03;;
74471;SDS011;62920;53.572;10.050;2023-04-08T03:08:37;10.52;;;5.10;;
74471;SDS011;62920;53.572;10.050;2023-04-08T03:11:02;12.23;;;6.13;;
74471;SDS011;62920;53.572;10.050;2023-04-08T03:13:28;13.15;;;5.70;;
74471;SDS011;62920;53.572;10.050;2023-04-08T03:15:53;10.77;;;5.70;;
74471;SDS011;62920;53.572;10.050;2023-04-08T03:18:19;15.02;;;6.30;;
74471;SDS011;62920;53.572;10.050;2023-04-08T03:20:45;12.50;;;6.32;;
74471;SDS011;62920;53.572;10.050;2023-04-08T03:23:10;14.85;;;6.95;;
74471;SDS011;62920;53.572;10.050;2023-04-08T03:25:36;12.85;;;6.32;;
74471;SDS011;62920;53.572;10.050;2023-04-08T03:28:01;15.55;;;7.30;;
74471;SDS011;62920;53.572;10.050;2023-04-08T03:30:27;17.25;;;7.15;;
74471;SDS011;62920;53.572;10.050;2023-04-08T03:32:52;15.82;;;6.88;;
74471;SDS011;62920;53.572;10.050;2023-04-08T03:35:17;14.05;;;6.70;;
74471;SDS011;62920;53.572;10.050;2023-04-08T03:37:43;14.30;;;6.85;;
74471;SDS011;62920;53.572;10.050;2023-04-08T03:40:08;16.15;;;7.35;;
74471;SDS011;62920;53.572;10.050;2023-04-08T03:42:34;17.73;;;7.45;;
74471;SDS011;62920;53.572;10.050;2023-04-08T03:44:59;16.75;;;7.80;;
74471;SDS011;62920;53.572;10.050;2023-04-08T03:47:25;20.15;;;7.65;;
74471;SDS011;62920;53.572;10.050;2023-04-08T03:49:54;19.23;;;8.27;;
74471;SDS011;62920;53.572;10.050;2023-04-08T03:52:19;19.98;;;8.45;;
74471;SDS011;62920;53.572;10.050;2023-04-08T03:54:45;18.85;;;9.30;;
74471;SDS011;62920;53.572;10.050;2023-04-08T03:57:10;21.10;;;8.43;;
74471;SDS011;62920;53.572;10.050;2023-04-08T03:59:36;20.60;;;9.65;;
74471;SDS011;62920;53.572;10.050;2023-04-08T04:02:03;21.73;;;8.43;;
74471;SDS011;62920;53.572;10.050;2023-04-08T04:04:29;21.52;;;8.73;;
74471;SDS011;62920;53.572;10.050;2023-04-08T04:06:54;21.38;;;9.70;;
74471;SDS011;62920;53.572;10.050;2023-04-08T04:09:20;19.70;;;8.70;;
74471;SDS011;62920;53.572;10.050;2023-04-08T04:11:45;19.95;;;8.65;;
74471;SDS011;62920;53.572;10.050;2023-04-08T04:14:10;21.50;;;8.57;;
74471;SDS011;62920;53.572;10.050;2023-04-08T04:16:36;23.42;;;8.18;;
74471;SDS011;62920;53.572;10.050;2023-04-08T04:19:01;21.85;;;8.63;;
74471;SDS011;62920;53.572;10.050;2023-04-08T04:21:27;18.48;;;8.25;;
74471;SDS011;62920;53.572;10.050;2023-04-08T04:23:52;20.65;;;8.05;;
74471;SDS011;62920;53.572;10.050;2023-04-08T04:26:17;17.13;;;7.40;;
74471;SDS011;62920;53.572;10.050;2023-04-08T04:28:43;18.95;;;8.45;;
74471;SDS011;62920;53.572;10.050;2023-04-08T04:31:16;16.42;;;7.88;;
74471;SDS011;62920;53.572;10.050;2023-04-08T04:33:50;19.90;;;8.23;;
74471;SDS011;62920;53.572;10.050;2023-04-08T04:36:15;18.20;;;8.40;;
74471;SDS011;62920;53.572;10.050;2023-04-08T04:38:44;24.17;;;9.18;;
74471;SDS011;62920;53.572;10.050;2023-04-08T04:41:09;20.63;;;8.25;;
74471;SDS011;62920;53.572;10.050;2023-04-08T04:43:35;19.80;;;7.97;;
74471;SDS011;62920;53.572;10.050;2023-04-08T04:46:01;18.83;;;8.13;;
74471;SDS011;62920;53.572;10.050;2023-04-08T04:50:56;17.27;;;7.90;;
74471;SDS011;62920;53.572;10.050;2023-04-08T04:53:22;20.45;;;7.47;;
74471;SDS011;62920;53.572;10.050;2023-04-08T04:55:48;19.65;;;7.90;;
74471;SDS011;62920;53.572;10.050;2023-04-08T04:58:14;23.25;;;9.15;;
74471;SDS011;62920;53.572;10.050;2023-04-08T05:00:40;20.77;;;8.60;;
74471;SDS011;62920;53.572;10.050;2023-04-08T05:03:05;16.83;;;8.25;;
74471;SDS011;62920;53.572;10.050;2023-04-08T05:05:30;20.30;;;9.25;;
74471;SDS011;62920;53.572;10.050;2023-04-08T05:07:56;20.15;;;8.05;;
74471;SDS011;62920;53.572;10.050;2023-04-08T05:10:21;22.88;;;8.30;;
74471;SDS011;62920;53.572;10.050;2023-04-08T05:12:47;21.35;;;7.57;;
74471;SDS011;62920;53.572;10.050;2023-04-08T05:15:12;23.50;;;8.98;;
74471;SDS011;62920;53.572;10.050;2023-04-08T05:17:37;18.98;;;7.75;;
74471;SDS011;62920;53.572;10.050;2023-04-08T05:20:03;19.75;;;8.40;;
74471;SDS011;62920;53.572;10.050;2023-04-08T05:22:29;18.55;;;7.70;;
74471;SDS011;62920;53.572;10.050;2023-04-08T05:24:54;21.77;;;8.52;;
74471;SDS011;62920;53.572;10.050;2023-04-08T05:27:19;19.73;;;7.85;;
74471;SDS011;62920;53.572;10.050;2023-04-08T05:29:45;19.77;;;8.55;;
74471;SDS011;62920;53.572;10.050;2023-04-08T05:32:11;16.48;;;7.10;;
74471;SDS011;62920;53.572;10.050;2023-04-08T05:34:36;16.60;;;7.15;;
74471;SDS011;62920;53.572;10.050;2023-04-08T05:37:02;17.23;;;6.88;;
74471;SDS011;62920;53.572;10.050;2023-04-08T05:39:27;18.40;;;6.70;;
74471;SDS011;62920;53.572;10.050;2023-04-08T05:41:52;19.70;;;7.50;;
74471;SDS011;62920;53.572;10.050;2023-04-08T05:44:18;18.42;;;7.93;;
74471;SDS011;62920;53.572;10.050;2023-04-08T05:46:43;16.05;;;7.05;;
74471;SDS011;62920;53.572;10.050;2023-04-08T05:49:08;18.02;;;7.72;;
74471;SDS011;62920;53.572;10.050;2023-04-08T05:51:34;17.98;;;7.22;;
74471;SDS011;62920;53.572;10.050;2023-04-08T05:53:59;16.10;;;6.90;;
74471;SDS011;62920;53.572;10.050;2023-04-08T05:56:25;19.05;;;7.70;;
74471;SDS011;62920;53.572;10.050;2023-04-08T05:58:50;22.15;;;7.07;;
74471;SDS011;62920;53.572;10.050;2023-04-08T06:01:16;18.63;;;7.65;;
74471;SDS011;62920;53.572;10.050;2023-04-08T06:03:41;17.05;;;7.32;;
74471;SDS011;62920;53.572;10.050;2023-04-08T06:06:09;22.63;;;6.90;;
74471;SDS011;62920;53.572;10.050;2023-04-08T06:08:38;16.52;;;7.00;;
74471;SDS011;62920;53.572;10.050;2023-04-08T06:11:04;20.42;;;7.80;;
74471;SDS011;62920;53.572;10.050;2023-04-08T06:13:30;19.38;;;7.60;;
74471;SDS011;62920;53.572;10.050;2023-04-08T06:15:55;20.55;;;7.68;;
74471;SDS011;62920;53.572;10.050;2023-04-08T06:18:21;14.35;;;6.82;;
74471;SDS011;62920;53.572;10.050;2023-04-08T06:20:46;18.00;;;7.22;;
74471;SDS011;62920;53.572;10.050;2023-04-08T06:23:12;21.40;;;8.00;;
74471;SDS011;62920;53.572;10.050;2023-04-08T06:25:37;23.70;;;8.10;;
74471;SDS011;62920;53.572;10.050;2023-04-08T06:28:03;19.23;;;8.68;;
74471;SDS011;62920;53.572;10.050;2023-04-08T06:30:28;22.05;;;7.95;;
74471;SDS011;62920;53.572;10.050;2023-04-08T06:32:54;20.25;;;8.10;;
74471;SDS011;62920;53.572;10.050;2023-04-08T06:35:19;19.77;;;8.00;;
74471;SDS011;62920;53.572;10.050;2023-04-08T06:37:45;22.30;;;9.52;;
74471;SDS011;62920;53.572;10.050;2023-04-08T06:40:11;19.58;;;7.80;;
74471;SDS011;62920;53.572;10.050;2023-04-08T06:42:36;20.33;;;8.00;;
74471;SDS011;62920;53.572;10.050;2023-04-08T06:45:07;25.35;;;8.90;;
74471;SDS011;62920;53.572;10.050;2023-04-08T06:47:32;24.92;;;9.25;;
74471;SDS011;62920;53.572;10.050;2023-04-08T06:49:58;23.35;;;9.07;;
74471;SDS011;62920;53.572;10.050;2023-04-08T06:52:23;22.33;;;8.98;;
74471;SDS011;62920;53.572;10.050;2023-04-08T06:54:49;19.58;;;8.35;;
74471;SDS011;62920;53.572;10.050;2023-04-08T06:57:14;17.05;;;7.65;;
74471;SDS011;62920;53.572;10.050;2023-04-08T06:59:40;20.95;;;8.85;;
74471;SDS011;62920;53.572;10.050;2023-04-08T07:02:05;19.80;;;8.65;;
74471;SDS011;62920;53.572;10.050;2023-04-08T07:04:31;20.52;;;8.20;;
74471;SDS011;62920;53.572;10.050;2023-04-08T07:06:56;17.17;;;7.63;;
74471;SDS011;62920;53.572;10.050;2023-04-08T07:09:22;16.90;;;7.47;;
74471;SDS011;62920;53.572;10.050;2023-04-08T07:11:47;16.92;;;7.57;;
74471;SDS011;62920;53.572;10.050;2023-04-08T07:14:13;21.30;;;7.60;;
74471;SDS011;62920;53.572;10.050;2023-04-08T07:16:38;18.00;;;8.02;;
74471;SDS011;62920;53.572;10.050;2023-04-08T07:19:03;20.80;;;7.95;;
74471;SDS011;62920;53.572;10.050;2023-04-08T07:21:29;17.33;;;7.70;;
74471;SDS011;62920;53.572;10.050;2023-04-08T07:23:55;13.75;;;6.88;;
74471;SDS011;62920;53.572;10.050;2023-04-08T07:26:20;16.52;;;7.18;;
74471;SDS011;62920;53.572;10.050;2023-04-08T07:28:46;16.90;;;7.22;;
74471;SDS011;62920;53.572;10.050;2023-04-08T07:31:13;15.23;;;7.00;;
74471;SDS011;62920;53.572;10.050;2023-04-08T07:33:39;17.48;;;8.15;;
74471;SDS011;62920;53.572;10.050;2023-04-08T07:36:05;17.85;;;7.30;;
74471;SDS011;62920;53.572;10.050;2023-04-08T07:38:31;17.35;;;6.80;;
74471;SDS011;62920;53.572;10.050;2023-04-08T07:40:56;19.40;;;7.55;;
74471;SDS011;62920;53.572;10.050;2023-04-08T07:43:22;16.60;;;7.45;;
74471;SDS011;62920;53.572;10.050;2023-04-08T07:45:47;15.55;;;7.30;;
74471;SDS011;62920;53.572;10.050;2023-04-08T07:48:12;19.88;;;8.07;;
74471;SDS011;62920;53.572;10.050;2023-04-08T07:50:38;22.35;;;7.90;;
74471;SDS011;62920;53.572;10.050;2023-04-08T07:53:03;20.92;;;8.32;;
74471;SDS011;62920;53.572;10.050;2023-04-08T07:55:32;18.65;;;7.97;;
74471;SDS011;62920;53.572;10.050;2023-04-08T07:57:58;20.23;;;8.80;;
74471;SDS011;62920;53.572;10.050;2023-04-08T08:00:23;16.40;;;7.55;;
74471;SDS011;62920;53.572;10.050;2023-04-08T08:02:49;19.25;;;7.88;;
74471;SDS011;62920;53.572;10.050;2023-04-08T08:05:14;18.45;;;7.60;;
74471;SDS011;62920;53.572;10.050;2023-04-08T08:07:40;18.08;;;6.95;;
74471;SDS011;62920;53.572;10.050;2023-04-08T08:10:05;19.30;;;8.52;;
74471;SDS011;62920;53.572;10.050;2023-04-08T08:12:31;22.20;;;8.13;;
74471;SDS011;62920;53.572;10.050;2023-04-08T08:14:57;20.15;;;8.15;;
74471;SDS011;62920;53.572;10.050;2023-04-08T08:17:23;18.17;;;7.65;;
74471;SDS011;62920;53.572;10.050;2023-04-08T08:19:49;19.05;;;7.20;;
74471;SDS011;62920;53.572;10.050;2023-04-08T08:22:15;15.50;;;7.15;;
74471;SDS011;62920;53.572;10.050;2023-04-08T08:24:40;21.63;;;7.88;;
74471;SDS011;62920;53.572;10.050;2023-04-08T08:27:08;18.35;;;7.50;;
74471;SDS011;62920;53.572;10.050;2023-04-08T08:29:34;17.15;;;7.30;;
74471;SDS011;62920;53.572;10.050;2023-04-08T08:32:01;15.27;;;6.88;;
74471;SDS011;62920;53.572;10.050;2023-04-08T08:34:27;17.92;;;7.22;;
74471;SDS011;62920;53.572;10.050;2023-04-08T08:36:52;21.02;;;7.95;;
74471;SDS011;62920;53.572;10.050;2023-04-08T08:39:18;16.05;;;7.35;;
74471;SDS011;62920;53.572;10.050;2023-04-08T08:41:43;15.77;;;6.80;;
74471;SDS011;62920;53.572;10.050;2023-04-08T08:44:10;16.05;;;7.00;;
74471;SDS011;62920;53.572;10.050;2023-04-08T08:46:36;15.90;;;7.22;;
74471;SDS011;62920;53.572;10.050;2023-04-08T08:49:10;14.77;;;6.68;;
74471;SDS011;62920;53.572;10.050;2023-04-08T08:51:38;15.75;;;6.55;;
74471;SDS011;62920;53.572;10.050;2023-04-08T08:54:04;14.85;;;6.88;;
74471;SDS011;62920;53.572;10.050;2023-04-08T08:56:31;14.43;;;6.00;;
74471;SDS011;62920;53.572;10.050;2023-04-08T08:58:57;16.33;;;6.72;;
74471;SDS011;62920;53.572;10.050;2023-04-08T09:01:35;16.83;;;6.70;;
74471;SDS011;62920;53.572;10.050;2023-04-08T09:04:06;12.40;;;6.28;;
74471;SDS011;62920;53.572;10.050;2023-04-08T09:06:40;17.63;;;6.50;;
74471;SDS011;62920;53.572;10.050;2023-04-08T09:09:06;14.20;;;7.15;;
74471;SDS011;62920;53.572;10.050;2023-04-08T09:11:34;14.93;;;7.18;;
74471;SDS011;62920;53.572;10.050;2023-04-08T09:14:04;19.40;;;6.65;;
74471;SDS011;62920;53.572;10.050;2023-04-08T09:18:57;18.27;;;7.65;;
74471;SDS011;62920;53.572;10.050;2023-04-08T09:21:32;16.10;;;6.13;;
74471;SDS011;62920;53.572;10.050;2023-04-08T09:23:59;12.95;;;6.40;;
74471;SDS011;62920;53.572;10.050;2023-04-08T09:26:24;14.15;;;6.72;;
74471;SDS011;62920;53.572;10.050;2023-04-08T09:28:57;13.70;;;6.57;;
74471;SDS011;62920;53.572;10.050;2023-04-08T09:31:23;17.77;;;6.75;;
74471;SDS011;62920;53.572;10.050;2023-04-08T09:33:51;17.67;;;6.85;;
74471;SDS011;62920;53.572;10.050;2023-04-08T09:36:18;15.18;;;6.68;;
74471;SDS011;62920;53.572;10.050;2023-04-08T09:38:44;15.18;;;6.88;;
74471;SDS011;62920;53.572;10.050;2023-04-08T09:41:12;15.25;;;6.38;;
74471;SDS011;62920;53.572;10.050;2023-04-08T09:43:43;14.48;;;6.78;;
74471;SDS011;62920;53.572;10.050;2023-04-08T09:46:13;14.35;;;6.63;;
74471;SDS011;62920;53.572;10.050;2023-04-08T09:48:42;12.85;;;6.38;;
74471;SDS011;62920;53.572;10.050;2023-04-08T09:51:31;16.25;;;7.32;;
74471;SDS011;62920;53.572;10.050;2023-04-08T09:54:01;14.63;;;6.72;;
74471;SDS011;62920;53.572;10.050;2023-04-08T09:56:35;17.52;;;7.10;;
74471;SDS011;62920;53.572;10.050;2023-04-08T09:59:15;15.07;;;6.47;;
74471;SDS011;62920;53.572;10.050;2023-04-08T10:01:49;18.35;;;7.53;;
74471;SDS011;62920;53.572;10.050;2023-04-08T10:04:17;16.90;;;7.60;;
74471;SDS011;62920;53.572;10.050;2023-04-08T10:06:47;20.52;;;7.53;;
74471;SDS011;62920;53.572;10.050;2023-04-08T10:09:18;15.23;;;7.22;;
74471;SDS011;62920;53.572;10.050;2023-04-08T10:11:45;16.42;;;7.53;;
74471;SDS011;62920;53.572;10.050;2023-04-08T10:14:10;16.08;;;8.20;;
74471;SDS011;62920;53.572;10.050;2023-04-08T10:16:36;18.88;;;8.15;;
74471;SDS011;62920;53.572;10.050;2023-04-08T10:19:02;15.70;;;7.95;;
74471;SDS011;62920;53.572;10.050;2023-04-08T10:22:02;20.83;;;8.13;;
74471;SDS011;62920;53.572;10.050;2023-04-08T10:24:28;16.13;;;8.00;;
74471;SDS011;62920;53.572;10.050;2023-04-08T10:26:53;16.85;;;8.10;;
74471;SDS011;62920;53.572;10.050;2023-04-08T10:31:53;17.30;;;8.82;;
74471;SDS011;62920;53.572;10.050;2023-04-08T10:34:19;18.00;;;7.80;;
74471;SDS011;62920;53.572;10.050;2023-04-08T10:39:18;20.60;;;7.55;;
74471;SDS011;62920;53.572;10.050;2023-04-08T10:41:47;14.90;;;7.40;;
74471;SDS011;62920;53.572;10.050;2023-04-08T10:44:14;17.10;;;7.68;;
74471;SDS011;62920;53.572;10.050;2023-04-08T10:46:41;16.95;;;7.43;;
74471;SDS011;62920;53.572;10.050;2023-04-08T10:49:07;14.23;;;6.28;;
74471;SDS011;62920;53.572;10.050;2023-04-08T10:51:33;16.55;;;7.35;;
74471;SDS011;62920;53.572;10.050;2023-04-08T10:54:09;15.25;;;7.07;;
74471;SDS011;62920;53.572;10.050;2023-04-08T10:56:42;12.07;;;5.68;;
74471;SDS011;62920;53.572;10.050;2023-04-08T10:59:36;17.38;;;7.40;;
74471;SDS011;62920;53.572;10.050;2023-04-08T11:02:01;17.55;;;7.72;;
74471;SDS011;62920;53.572;10.050;2023-04-08T11:04:26;17.65;;;7.10;;
74471;SDS011;62920;53.572;10.050;2023-04-08T11:06:52;16.75;;;6.50;;
74471;SDS011;62920;53.572;10.050;2023-04-08T11:09:17;14.63;;;7.30;;
74471;SDS011;62920;53.572;10.050;2023-04-08T11:11:43;16.73;;;8.05;;
74471;SDS011;62920;53.572;10.050;2023-04-08T11:14:09;16.52;;;8.43;;
74471;SDS011;62920;53.572;10.050;2023-04-08T11:16:36;17.50;;;8.50;;
74471;SDS011;62920;53.572;10.050;2023-04-08T11:19:02;18.30;;;8.32;;
74471;SDS011;62920;53.572;10.050;2023-04-08T11:21:34;16.90;;;8.88;;
74471;SDS011;62920;53.572;10.050;2023-04-08T11:24:00;19.73;;;8.40;;
74471;SDS011;62920;53.572;10.050;2023-04-08T11:26:25;21.75;;;9.50;;
74471;SDS011;62920;53.572;10.050;2023-04-08T11:28:51;21.85;;;9.60;;
74471;SDS011;62920;53.572;10.050;2023-04-08T11:31:17;20.02;;;9.93;;
74471;SDS011;62920;53.572;10.050;2023-04-08T11:33:44;22.35;;;9.23;;
74471;SDS011;62920;53.572;10.050;2023-04-08T11:36:11;16.73;;;7.55;;
74471;SDS011;62920;53.572;10.050;2023-04-08T11:38:40;15.65;;;7.55;;
74471;SDS011;62920;53.572;10.050;2023-04-08T11:41:06;15.35;;;7.80;;
74471;SDS011;62920;53.572;10.050;2023-04-08T11:43:31;21.55;;;8.93;;
74471;SDS011;62920;53.572;10.050;2023-04-08T11:45:57;19.58;;;9.38;;
74471;SDS011;62920;53.572;10.050;2023-04-08T11:48:23;21.35;;;8.77;;
74471;SDS011;62920;53.572;10.050;2023-04-08T11:50:49;21.50;;;9.23;;
74471;SDS011;62920;53.572;10.050;2023-04-08T11:53:27;23.88;;;9.27;;
74471;SDS011;62920;53.572;10.050;2023-04-08T11:55:53;19.02;;;8.93;;
74471;SDS011;62920;53.572;10.050;2023-04-08T11:58:19;21.15;;;9.05;;
74471;SDS011;62920;53.572;10.050;2023-04-08T12:00:45;19.75;;;8.10;;
74471;SDS011;62920;53.572;10.050;2023-04-08T12:03:11;21.25;;;8.82;;
74471;SDS011;62920;53.572;10.050;2023-04-08T12:05:37;19.90;;;8.52;;
74471;SDS011;62920;53.572;10.050;2023-04-08T12:08:03;18.30;;;8.13;;
74471;SDS011;62920;53.572;10.050;2023-04-08T12:10:28;19.77;;;9.30;;
74471;SDS011;62920;53.572;10.050;2023-04-08T12:12:54;17.83;;;8.23;;
74471;SDS011;62920;53.572;10.050;2023-04-08T12:15:19;18.17;;;8.98;;
74471;SDS011;62920;53.572;10.050;2023-04-08T12:17:44;16.20;;;7.97;;
74471;SDS011;62920;53.572;10.050;2023-04-08T12:20:10;16.98;;;8.07;;
74471;SDS011;62920;53.572;10.050;2023-04-08T12:22:36;15.98;;;7.97;;
74471;SDS011;62920;53.572;10.050;2023-04-08T12:25:02;17.15;;;8.13;;
74471;SDS011;62920;53.572;10.050;2023-04-08T12:27:28;18.73;;;8.70;;
74471;SDS011;62920;53.572;10.050;2023-04-08T12:29:54;16.83;;;8.43;;
74471;SDS011;62920;53.572;10.050;2023-04-08T12:32:19;20.48;;;9.02;;
74471;SDS011;62920;53.572;10.050;2023-04-08T12:34:45;16.13;;;7.53;;
74471;SDS011;62920;53.572;10.050;2023-04-08T12:37:11;15.25;;;7.63;;
74471;SDS011;62920;53.572;10.050;2023-04-08T12:39:36;16.23;;;7.95;;
74471;SDS011;62920;53.572;10.050;2023-04-08T12:42:02;15.35;;;7.50;;
74471;SDS011;62920;53.572;10.050;2023-04-08T12:44:28;17.33;;;8.02;;
74471;SDS011;62920;53.572;10.050;2023-04-08T12:46:54;17.73;;;8.88;;
74471;SDS011;62920;53.572;10.050;2023-04-08T12:49:20;22.85;;;10.02;;
74471;SDS011;62920;53.572;10.050;2023-04-08T12:51:45;21.20;;;10.27;;
74471;SDS011;62920;53.572;10.050;2023-04-08T12:54:10;25.98;;;11.07;;
74471;SDS011;62920;53.572;10.050;2023-04-08T12:56:36;26.02;;;10.75;;
74471;SDS011;62920;53.572;10.050;2023-04-08T12:59:03;22.75;;;11.35;;
74471;SDS011;62920;53.572;10.050;2023-04-08T13:01:28;20.00;;;9.65;;
74471;SDS011;62920;53.572;10.050;2023-04-08T13:03:54;23.02;;;10.30;;
74471;SDS011;62920;53.572;10.050;2023-04-08T13:06:20;16.45;;;9.32;;
74471;SDS011;62920;53.572;10.050;2023-04-08T13:08:45;16.58;;;8.65;;
74471;SDS011;62920;53.572;10.050;2023-04-08T13:11:11;18.02;;;7.82;;
74471;SDS011;62920;53.572;10.050;2023-04-08T13:13:36;17.33;;;7.57;;
74471;SDS011;62920;53.572;10.050;2023-04-08T13:16:02;15.48;;;8.05;;
74471;SDS011;62920;53.572;10.050;2023-04-08T13:18:28;15.32;;;6.78;;
74471;SDS011;62920;53.572;10.050;2023-04-08T13:20:53;15.15;;;7.85;;
74471;SDS011;62920;53.572;10.050;2023-04-08T13:23:19;21.33;;;7.88;;
74471;SDS011;62920;53.572;10.050;2023-04-08T13:25:45;19.05;;;8.95;;
74471;SDS011;62920;53.572;10.050;2023-04-08T13:28:10;17.52;;;9.60;;
74471;SDS011;62920;53.572;10.050;2023-04-08T13:30:36;24.25;;;8.93;;
74471;SDS011;62920;53.572;10.050;2023-04-08T13:33:02;19.20;;;9.48;;
74471;SDS011;62920;53.572;10.050;2023-04-08T13:35:28;18.23;;;9.20;;
74471;SDS011;62920;53.572;10.050;2023-04-08T13:37:53;16.45;;;9.40;;
74471;SDS011;62920;53.572;10.050;2023-04-08T13:40:18;16.75;;;8.98;;
74471;SDS011;62920;53.572;10.050;2023-04-08T13:42:44;19.30;;;9.45;;
74471;SDS011;62920;53.572;10.050;2023-04-08T13:45:09;19.02;;;9.73;;
74471;SDS011;62920;53.572;10.050;2023-04-08T13:47:35;18.83;;;9.07;;
74471;SDS011;62920;53.572;10.050;2023-04-08T13:50:01;19.42;;;9.20;;
74471;SDS011;62920;53.572;10.050;2023-04-08T13:52:26;23.08;;;10.68;;
74471;SDS011;62920;53.572;10.050;2023-04-08T13:54:52;19.42;;;9.90;;
74471;SDS011;62920;53.572;10.050;2023-04-08T13:57:17;22.13;;;8.82;;
74471;SDS011;62920;53.572;10.050;2023-04-08T13:59:42;20.38;;;9.43;;
74471;SDS011;62920;53.572;10.050;2023-04-08T14:02:08;18.98;;;9.23;;
74471;SDS011;62920;53.572;10.050;2023-04-08T14:04:33;17.52;;;9.73;;
74471;SDS011;62920;53.572;10.050;2023-04-08T14:06:58;16.80;;;8.80;;
74471;SDS011;62920;53.572;10.050;2023-04-08T14:09:24;20.02;;;9.20;;
74471;SDS011;62920;53.572;10.050;2023-04-08T14:11:50;19.20;;;9.45;;
74471;SDS011;62920;53.572;10.050;2023-04-08T14:14:15;22.17;;;10.35;;
74471;SDS011;62920;53.572;10.050;2023-04-08T14:16:41;26.75;;;10.95;;
74471;SDS011;62920;53.572;10.050;2023-04-08T14:19:06;22.67;;;11.25;;
74471;SDS011;62920;53.572;10.050;2023-04-08T14:21:32;21.10;;;9.85;;
74471;SDS011;62920;53.572;10.050;2023-04-08T14:23:57;25.23;;;10.65;;
74471;SDS011;62920;53.572;10.050;2023-04-08T14:26:23;19.13;;;10.13;;
74471;SDS011;62920;53.572;10.050;2023-04-08T14:28:49;20.60;;;10.50;;
74471;SDS011;62920;53.572;10.050;2023-04-08T14:31:14;20.50;;;9.88;;
74471;SDS011;62920;53.572;10.050;2023-04-08T14:33:40;21.58;;;9.90;;
74471;SDS011;62920;53.572;10.050;2023-04-08T14:36:06;20.65;;;10.13;;